createdAt,value
2018-12-10T00:00:06.230Z,4.05
2018-12-10T00:02:40.058Z,4.70
2018-12-10T00:05:13.730Z,4.33
2018-12-10T00:07:47.186Z,4.93
2018-12-10T00:10:21.190Z,4.10
2018-12-10T00:12:55.090Z,3.70
2018-12-10T00:15:29.105Z,4.10
2018-12-10T00:18:02.730Z,5.87
2018-12-10T00:20:37.330Z,3.73
2018-12-10T00:23:10.991Z,4.37
2018-12-10T00:25:44.371Z,3.70
2018-12-10T00:28:18.507Z,4.37
2018-12-10T00:30:52.102Z,4.50
2018-12-10T00:33:25.910Z,3.87
2018-12-10T00:35:59.527Z,3.80
2018-12-10T00:40:16.691Z,5.08
2018-12-10T00:42:50.182Z,4.47
2018-12-10T00:45:24.106Z,4.95
2018-12-10T00:47:57.533Z,4.50
2018-12-10T00:50:31.181Z,4.60
2018-12-10T00:53:04.710Z,4.30
2018-12-10T00:55:38.359Z,3.90
2018-12-10T00:58:12.193Z,4.53
2018-12-10T01:00:45.641Z,5.00
2018-12-10T01:03:19.220Z,3.73
2018-12-10T01:05:53.190Z,3.62
2018-12-10T01:08:26.540Z,5.43
2018-12-10T01:11:00.119Z,3.37
2018-12-10T01:13:33.541Z,4.23
2018-12-10T01:16:07.232Z,3.97
2018-12-10T01:18:41.118Z,3.58
2018-12-10T01:21:15.007Z,4.00
2018-12-10T01:23:48.693Z,3.90
2018-12-10T01:29:08.195Z,3.77
2018-12-10T01:31:41.545Z,3.80
2018-12-10T01:34:15.059Z,3.67
2018-12-10T01:36:48.542Z,3.40
2018-12-10T01:39:22.143Z,3.53
2018-12-10T01:41:56.130Z,3.60
2018-12-10T01:44:30.119Z,3.67
2018-12-10T01:47:04.081Z,3.70
2018-12-10T01:49:38.130Z,3.58
2018-12-10T01:52:12.655Z,3.80
2018-12-10T01:54:46.383Z,3.60
2018-12-10T01:57:19.743Z,3.50
2018-12-10T01:59:53.385Z,3.67
2018-12-10T02:04:22.098Z,3.30
2018-12-10T02:06:56.134Z,3.43
2018-12-10T02:09:30.114Z,3.70
2018-12-10T02:12:04.124Z,3.35
2018-12-10T02:17:09.391Z,3.40
2018-12-10T02:19:43.659Z,3.63
2018-12-10T02:22:17.294Z,3.57
2018-12-10T02:24:51.196Z,3.90
2018-12-10T02:27:25.166Z,3.80
2018-12-10T02:29:59.648Z,3.53
2018-12-10T02:32:33.409Z,3.53
2018-12-10T02:35:07.353Z,3.60
2018-12-10T02:37:41.190Z,3.70
2018-12-10T02:40:14.908Z,4.00
2018-12-10T02:42:48.940Z,3.50
2018-12-10T02:45:23.274Z,3.80
2018-12-10T02:47:57.415Z,3.67
2018-12-10T02:50:31.296Z,3.83
2018-12-10T02:53:05.124Z,4.20
2018-12-10T02:55:39.159Z,3.37
2018-12-10T02:58:12.756Z,3.80
2018-12-10T03:00:46.432Z,4.00
2018-12-10T03:03:20.221Z,3.80
2018-12-10T03:05:54.168Z,3.40
2018-12-10T03:08:28.202Z,3.40
2018-12-10T03:11:01.955Z,3.70
2018-12-10T03:13:36.521Z,4.00
2018-12-10T03:16:10.892Z,3.70
2018-12-10T03:18:44.586Z,3.67
2018-12-10T03:21:18.185Z,3.73
2018-12-10T03:23:52.188Z,3.80
2018-12-10T03:28:57.591Z,3.77
2018-12-10T03:31:31.334Z,3.13
2018-12-10T03:34:05.195Z,6.40
2018-12-10T03:36:39.595Z,5.07
2018-12-10T03:39:13.269Z,4.87
2018-12-10T03:41:47.170Z,5.37
2018-12-10T03:44:21.117Z,8.78
2018-12-10T03:46:54.767Z,6.62
2018-12-10T03:49:28.230Z,5.87
2018-12-10T03:52:01.699Z,4.97
2018-12-10T03:54:35.126Z,6.90
2018-12-10T03:57:09.052Z,9.40
2018-12-10T03:59:43.208Z,8.75
2018-12-10T04:02:16.743Z,7.63
2018-12-10T04:04:50.457Z,11.08
2018-12-10T04:07:24.618Z,11.50
2018-12-10T04:09:58.441Z,5.58
2018-12-10T04:12:32.308Z,6.62
2018-12-10T04:15:06.133Z,8.60
2018-12-10T04:17:40.222Z,6.20
2018-12-10T04:20:14.185Z,11.05
2018-12-10T04:22:47.875Z,7.47
2018-12-10T04:25:21.483Z,8.70
2018-12-10T04:27:55.250Z,7.33
2018-12-10T04:30:28.849Z,11.43
2018-12-10T04:33:02.905Z,15.28
2018-12-10T04:35:37.214Z,16.57
2018-12-10T04:38:12.765Z,12.47
2018-12-10T04:40:46.441Z,10.13
2018-12-10T04:43:20.195Z,11.85
2018-12-10T04:45:53.636Z,11.63
2018-12-10T04:48:27.619Z,13.10
2018-12-10T04:51:01.313Z,15.10
2018-12-10T04:53:34.931Z,16.30
2018-12-10T04:56:08.734Z,11.80
2018-12-10T04:58:42.480Z,18.10
2018-12-10T05:01:16.246Z,16.90
2018-12-10T05:03:50.222Z,11.10
2018-12-10T05:06:24.152Z,13.08
2018-12-10T05:08:58.453Z,12.40
2018-12-10T05:11:32.450Z,11.77
2018-12-10T05:14:05.883Z,13.23
2018-12-10T05:16:39.630Z,15.48
2018-12-10T05:19:13.363Z,14.73
2018-12-10T05:21:47.234Z,12.95
2018-12-10T05:24:21.370Z,11.08
2018-12-10T05:26:54.810Z,13.73
2018-12-10T05:29:28.835Z,11.12
2018-12-10T05:32:03.212Z,13.17
2018-12-10T05:34:36.821Z,9.98
2018-12-10T05:37:10.249Z,11.30
2018-12-10T05:39:44.212Z,9.63
2018-12-10T05:42:18.249Z,10.03
2018-12-10T05:44:52.232Z,9.80
2018-12-10T05:49:57.671Z,10.63
2018-12-10T05:52:32.214Z,10.43
2018-12-10T05:55:06.155Z,11.10
2018-12-10T05:59:57.742Z,9.13
2018-12-10T06:02:32.639Z,11.25
2018-12-10T06:05:06.794Z,11.73
2018-12-10T06:07:41.221Z,9.23
2018-12-10T06:10:15.305Z,10.48
2018-12-10T06:12:49.187Z,15.33
2018-12-10T06:15:22.712Z,9.07
2018-12-10T06:17:59.158Z,9.10
2018-12-10T06:20:33.107Z,10.70
2018-12-10T06:23:06.798Z,10.90
2018-12-10T06:25:40.328Z,9.67
2018-12-10T06:30:45.739Z,9.70
2018-12-10T06:33:19.380Z,12.23
2018-12-10T06:35:53.323Z,12.03
2018-12-10T06:38:27.658Z,13.60
2018-12-10T06:41:01.263Z,15.73
2018-12-10T06:43:34.757Z,16.32
2018-12-10T06:46:08.640Z,15.67
2018-12-10T06:48:42.186Z,10.80
2018-12-10T06:51:15.872Z,12.00
2018-12-10T06:53:49.825Z,11.03
2018-12-10T06:56:23.267Z,10.70
2018-12-10T06:58:57.995Z,12.95
2018-12-10T07:01:31.762Z,11.27
2018-12-10T07:04:05.532Z,10.30
2018-12-10T07:06:39.773Z,9.67
2018-12-10T07:09:13.486Z,10.80
2018-12-10T07:11:47.308Z,9.93
2018-12-10T07:14:20.825Z,9.87
2018-12-10T07:16:54.834Z,9.20
2018-12-10T07:19:28.489Z,8.40
2018-12-10T07:22:02.489Z,9.43
2018-12-10T07:24:36.268Z,9.43
2018-12-10T07:27:10.218Z,8.87
2018-12-10T07:29:44.510Z,10.67
2018-12-10T07:32:18.151Z,8.40
2018-12-10T07:34:54.369Z,7.90
2018-12-10T07:37:28.258Z,8.20
2018-12-10T07:42:35.995Z,7.70
2018-12-10T07:45:10.358Z,8.30
2018-12-10T07:47:44.250Z,8.47
2018-12-10T07:50:17.931Z,7.90
2018-12-10T07:52:51.695Z,8.43
2018-12-10T07:55:25.357Z,7.63
2018-12-10T07:57:59.282Z,7.85
2018-12-10T08:00:33.190Z,7.80
2018-12-10T08:03:07.228Z,7.80
2018-12-10T08:05:40.886Z,9.67
2018-12-10T08:08:14.507Z,7.87
2018-12-10T08:10:48.503Z,7.57
2018-12-10T08:13:22.266Z,7.80
2018-12-10T08:18:28.051Z,7.13
2018-12-10T08:21:02.405Z,7.10
2018-12-10T08:25:14.895Z,7.20
2018-12-10T08:27:48.501Z,7.63
2018-12-10T08:30:22.181Z,7.50
2018-12-10T08:32:56.310Z,7.23
2018-12-10T08:35:29.514Z,7.20
2018-12-10T08:38:03.515Z,6.60
2018-12-10T08:40:37.270Z,8.73
2018-12-10T08:43:11.397Z,6.17
2018-12-10T08:45:45.271Z,6.85
2018-12-10T08:48:18.686Z,7.30
2018-12-10T08:50:52.524Z,6.87
2018-12-10T08:53:26.270Z,7.07
2018-12-10T08:56:00.245Z,6.70
2018-12-10T08:58:33.869Z,7.23
2018-12-10T09:01:07.246Z,6.70
2018-12-10T09:03:41.266Z,6.45
2018-12-10T09:06:15.177Z,6.95
2018-12-10T09:08:49.395Z,6.70
2018-12-10T09:11:23.002Z,6.70
2018-12-10T09:13:56.698Z,6.50
2018-12-10T09:16:30.315Z,6.50
2018-12-10T09:19:04.282Z,7.07
2018-12-10T09:21:38.101Z,6.30
2018-12-10T09:24:12.809Z,7.08
2018-12-10T09:26:46.301Z,7.30
2018-12-10T09:29:19.810Z,8.60
2018-12-10T09:31:53.363Z,7.00
2018-12-10T09:34:27.154Z,6.83
2018-12-10T09:37:00.713Z,6.40
2018-12-10T09:39:34.243Z,6.10
2018-12-10T09:42:07.815Z,6.20
2018-12-10T09:44:41.710Z,6.27
2018-12-10T09:47:15.563Z,5.97
2018-12-10T09:49:49.289Z,6.55
2018-12-10T09:52:22.711Z,6.83
2018-12-10T09:54:56.425Z,6.33
2018-12-10T09:57:29.729Z,5.60
2018-12-10T10:00:03.443Z,5.70
2018-12-10T10:02:36.714Z,5.85
2018-12-10T10:05:10.547Z,5.87
2018-12-10T10:09:57.882Z,5.45
2018-12-10T10:12:31.439Z,5.63
2018-12-10T10:15:05.033Z,6.00
2018-12-10T10:17:38.738Z,5.97
2018-12-10T10:20:13.043Z,5.60
2018-12-10T10:22:46.906Z,5.30
2018-12-10T10:25:20.891Z,6.20
2018-12-10T10:27:54.314Z,5.87
2018-12-10T10:30:28.298Z,5.72
2018-12-10T10:33:02.108Z,5.80
2018-12-10T10:35:35.742Z,5.83
2018-12-10T10:38:09.558Z,5.40
2018-12-10T10:40:43.429Z,6.77
2018-12-10T10:43:17.722Z,5.60
2018-12-10T10:45:51.371Z,5.15
2018-12-10T10:48:25.272Z,5.35
2018-12-10T10:50:58.910Z,4.80
2018-12-10T10:53:32.744Z,5.77
2018-12-10T10:56:06.902Z,5.40
2018-12-10T10:58:40.562Z,5.30
2018-12-10T11:01:18.378Z,4.90
2018-12-10T11:03:52.734Z,5.80
2018-12-10T11:06:26.562Z,4.67
2018-12-10T11:09:00.589Z,4.78
2018-12-10T11:11:34.363Z,5.03
2018-12-10T11:14:08.337Z,4.97
2018-12-10T11:16:42.262Z,6.30
2018-12-10T11:19:16.234Z,5.27
2018-12-10T11:21:49.903Z,4.80
2018-12-10T11:24:23.391Z,4.97
2018-12-10T11:26:57.206Z,4.87
2018-12-10T11:29:30.946Z,5.10
2018-12-10T11:32:04.386Z,4.83
2018-12-10T11:37:09.765Z,5.10
2018-12-10T11:39:43.465Z,4.53
2018-12-10T11:42:17.329Z,5.27
2018-12-10T11:44:51.227Z,4.00
2018-12-10T11:47:25.360Z,5.00
2018-12-10T11:49:59.313Z,5.03
2018-12-10T11:52:32.957Z,4.70
2018-12-10T11:55:07.363Z,4.83
2018-12-10T11:57:40.615Z,4.83
2018-12-10T12:00:14.403Z,4.80
2018-12-10T12:02:47.928Z,4.60
2018-12-10T12:05:21.761Z,4.60
2018-12-10T12:07:55.490Z,4.30
2018-12-10T12:10:29.351Z,4.62
2018-12-10T12:13:02.758Z,4.73
2018-12-10T12:15:36.394Z,4.17
2018-12-10T12:18:10.315Z,4.20
2018-12-10T12:20:44.329Z,4.45
2018-12-10T12:23:18.022Z,4.50
2018-12-10T12:25:51.636Z,4.60
2018-12-10T12:28:25.651Z,4.53
2018-12-10T12:30:59.415Z,4.33
2018-12-10T12:33:33.401Z,4.40
2018-12-10T12:36:06.928Z,4.80
2018-12-10T12:38:40.403Z,4.20
2018-12-10T12:41:14.957Z,4.60
2018-12-10T12:43:48.926Z,4.83
2018-12-10T12:46:22.598Z,4.50
2018-12-10T12:51:28.350Z,3.77
2018-12-10T12:54:02.391Z,4.17
2018-12-10T12:56:36.310Z,4.27
2018-12-10T12:59:10.427Z,4.27
2018-12-10T13:04:17.603Z,4.70
2018-12-10T13:06:51.611Z,4.00
2018-12-10T13:09:25.413Z,3.85
2018-12-10T13:11:59.367Z,4.70
2018-12-10T13:14:32.794Z,4.00
2018-12-10T13:17:06.324Z,4.27
2018-12-10T13:19:40.418Z,3.75
2018-12-10T13:22:13.914Z,6.67
2018-12-10T13:24:47.394Z,4.15
2018-12-10T13:27:21.587Z,4.10
2018-12-10T13:29:55.361Z,4.67
2018-12-10T13:32:29.387Z,4.10
2018-12-10T13:35:02.786Z,3.60
2018-12-10T13:37:36.419Z,3.90
2018-12-10T13:40:10.276Z,4.00
2018-12-10T13:42:43.970Z,4.10
2018-12-10T13:45:17.616Z,4.00
2018-12-10T13:47:51.247Z,3.83
2018-12-10T13:50:25.470Z,4.90
2018-12-10T13:52:58.893Z,3.80
2018-12-10T13:55:32.459Z,6.63
2018-12-10T13:58:06.625Z,3.53
2018-12-10T14:00:40.637Z,3.77
2018-12-10T14:03:14.374Z,3.70
2018-12-10T14:05:48.398Z,3.75
2018-12-10T14:08:23.622Z,4.20
2018-12-10T14:10:57.801Z,4.23
2018-12-10T14:13:32.378Z,3.70
2018-12-10T14:16:06.392Z,3.80
2018-12-10T14:18:40.379Z,4.23
2018-12-10T14:21:14.398Z,3.70
2018-12-10T14:23:48.391Z,3.50
2018-12-10T14:26:22.633Z,3.40
2018-12-10T14:28:56.382Z,3.50
2018-12-10T14:31:30.909Z,3.80
2018-12-10T14:34:08.993Z,4.00
2018-12-10T14:36:42.627Z,3.90
2018-12-10T14:40:43.645Z,3.55
2018-12-10T14:43:17.545Z,3.45
2018-12-10T14:45:51.274Z,3.72
2018-12-10T14:48:25.659Z,3.60
2018-12-10T14:50:59.474Z,3.90
2018-12-10T14:53:33.406Z,4.00
2018-12-10T14:56:07.374Z,3.70
2018-12-10T14:58:40.921Z,3.40
2018-12-10T15:01:14.416Z,3.27
2018-12-10T15:03:48.522Z,3.05
2018-12-10T15:06:22.379Z,4.63
2018-12-10T15:08:55.916Z,3.67
2018-12-10T15:11:29.641Z,5.23
2018-12-10T15:14:03.323Z,3.80
2018-12-10T15:16:37.378Z,4.85
2018-12-10T15:19:11.027Z,4.23
2018-12-10T15:21:44.653Z,3.70
2018-12-10T15:24:18.429Z,3.37
2018-12-10T15:26:51.982Z,4.53
2018-12-10T15:29:25.933Z,4.20
2018-12-10T15:31:59.807Z,5.17
2018-12-10T15:34:33.648Z,4.08
2018-12-10T15:37:07.569Z,4.17
2018-12-10T15:39:40.981Z,3.60
2018-12-10T15:42:14.826Z,3.90
2018-12-10T15:44:48.478Z,4.07
2018-12-10T15:47:22.385Z,5.63
2018-12-10T15:49:55.969Z,7.63
2018-12-10T15:52:29.576Z,9.95
2018-12-10T15:55:03.497Z,7.30
2018-12-10T15:57:37.555Z,6.93
2018-12-10T16:00:11.837Z,12.03
2018-12-10T16:02:45.560Z,7.17
2018-12-10T16:05:19.551Z,9.48
2018-12-10T16:07:53.467Z,7.67
2018-12-10T16:10:27.370Z,6.70
2018-12-10T16:13:00.943Z,5.50
2018-12-10T16:15:35.158Z,5.77
2018-12-10T16:18:08.855Z,7.23
2018-12-10T16:20:42.414Z,4.80
2018-12-10T16:23:16.040Z,4.15
2018-12-10T16:25:50.437Z,4.70
2018-12-10T16:28:24.422Z,5.20
2018-12-10T16:30:58.841Z,4.90
2018-12-10T16:33:32.671Z,4.80
2018-12-10T16:36:06.319Z,4.57
2018-12-10T16:38:39.675Z,4.90
2018-12-10T16:41:13.679Z,4.70
2018-12-10T16:43:47.422Z,4.70
2018-12-10T16:46:20.679Z,4.85
2018-12-10T16:48:54.855Z,4.53
2018-12-10T16:51:28.498Z,4.27
2018-12-10T16:54:02.447Z,4.53
2018-12-10T16:56:35.906Z,4.80
2018-12-10T16:59:10.183Z,5.37
2018-12-10T17:01:43.541Z,5.43
2018-12-10T17:04:17.494Z,6.17
2018-12-10T17:06:50.964Z,4.50
2018-12-10T17:09:24.838Z,4.40
2018-12-10T17:11:58.873Z,4.37
2018-12-10T17:14:32.508Z,4.10
2018-12-10T17:17:06.647Z,4.33
2018-12-10T17:19:40.442Z,4.30
2018-12-10T17:22:13.886Z,4.17
2018-12-10T17:24:47.454Z,4.30
2018-12-10T17:27:21.678Z,4.37
2018-12-10T17:29:55.645Z,4.47
2018-12-10T17:32:29.839Z,4.43
2018-12-10T17:35:03.334Z,4.20
2018-12-10T17:37:37.031Z,3.83
2018-12-10T17:40:11.042Z,4.03
2018-12-10T17:44:50.456Z,4.42
2018-12-10T17:47:23.718Z,4.37
2018-12-10T17:49:57.190Z,4.17
2018-12-10T17:52:30.477Z,4.73
2018-12-10T17:55:03.882Z,3.98
2018-12-10T17:57:37.426Z,4.27
2018-12-10T18:00:13.470Z,4.20
2018-12-10T18:02:47.503Z,4.00
2018-12-10T18:05:20.873Z,4.43
2018-12-10T18:07:55.197Z,4.30
2018-12-10T18:10:29.086Z,4.33
2018-12-10T18:13:02.735Z,4.27
2018-12-10T18:15:36.592Z,4.60
2018-12-10T18:18:10.549Z,4.05
2018-12-10T18:20:44.509Z,4.05
2018-12-10T18:23:18.142Z,6.50
2018-12-10T18:25:52.279Z,5.10
2018-12-10T18:29:13.061Z,4.67
2018-12-10T18:31:46.492Z,4.80
2018-12-10T18:34:19.614Z,4.60
2018-12-10T18:36:53.091Z,4.47
2018-12-10T18:39:26.889Z,4.03
2018-12-10T18:42:00.636Z,4.30
2018-12-10T18:44:34.488Z,4.65
2018-12-10T18:47:08.491Z,4.70
2018-12-10T18:49:42.442Z,4.37
2018-12-10T18:52:16.492Z,5.97
2018-12-10T18:54:50.494Z,6.08
2018-12-10T18:57:24.503Z,6.78
2018-12-10T18:59:58.578Z,7.10
2018-12-10T19:02:32.471Z,5.10
2018-12-10T19:05:06.545Z,5.53
2018-12-10T19:07:40.515Z,4.87
2018-12-10T19:10:14.494Z,5.57
2018-12-10T19:12:48.367Z,5.45
2018-12-10T19:15:22.343Z,4.63
2018-12-10T19:17:56.481Z,4.73
2018-12-10T19:20:30.490Z,4.12
2018-12-10T19:23:04.461Z,4.78
2018-12-10T19:25:37.740Z,4.70
2018-12-10T19:28:11.542Z,4.50
2018-12-10T19:30:45.410Z,4.55
2018-12-10T19:33:19.014Z,4.30
2018-12-10T19:35:52.442Z,4.47
2018-12-10T19:38:25.740Z,4.60
2018-12-10T19:40:59.473Z,4.50
2018-12-10T19:43:32.486Z,4.00
2018-12-10T19:47:09.913Z,4.10
2018-12-10T19:50:12.585Z,4.30
2018-12-10T19:52:46.532Z,3.92
2018-12-10T19:55:20.514Z,4.60
2018-12-10T19:57:54.686Z,4.58
2018-12-10T20:00:27.928Z,3.85
2018-12-10T20:03:04.995Z,3.98
2018-12-10T20:05:41.642Z,5.20
2018-12-10T20:08:15.634Z,4.15
2018-12-10T20:10:49.598Z,4.13
2018-12-10T20:13:22.919Z,4.00
2018-12-10T20:15:56.620Z,3.93
2018-12-10T20:18:30.500Z,4.00
2018-12-10T20:21:04.465Z,3.85
2018-12-10T20:23:38.127Z,3.97
2018-12-10T20:26:11.942Z,4.13
2018-12-10T20:28:45.523Z,3.80
2018-12-10T20:31:19.113Z,4.20
2018-12-10T20:33:52.504Z,3.80
2018-12-10T20:38:57.822Z,4.30
2018-12-10T20:41:31.610Z,3.85
2018-12-10T20:44:05.505Z,3.60
2018-12-10T20:46:39.109Z,3.60
2018-12-10T20:49:12.469Z,3.50
2018-12-10T20:51:46.531Z,3.67
2018-12-10T20:54:20.375Z,3.70
2018-12-10T20:56:53.959Z,3.50
2018-12-10T20:59:27.763Z,5.33
2018-12-10T21:02:01.585Z,3.70
2018-12-10T21:04:35.566Z,3.52
2018-12-10T21:07:08.938Z,4.40
2018-12-10T21:09:42.205Z,4.00
2018-12-10T21:12:15.763Z,4.28
2018-12-10T21:14:48.951Z,4.10
2018-12-10T21:17:21.956Z,3.80
2018-12-10T21:19:55.623Z,3.87
2018-12-10T21:22:29.053Z,4.20
2018-12-10T21:25:02.526Z,5.10
2018-12-10T21:27:36.504Z,4.17
2018-12-10T21:30:10.441Z,3.80
2018-12-10T21:32:44.125Z,5.03
2018-12-10T21:35:17.990Z,4.20
2018-12-10T21:37:51.411Z,3.75
2018-12-10T21:40:24.781Z,3.47
2018-12-10T21:42:58.530Z,3.65
2018-12-10T21:45:31.780Z,3.73
2018-12-10T21:48:05.134Z,3.30
2018-12-10T21:50:38.779Z,3.47
2018-12-10T21:53:12.551Z,3.77
2018-12-10T21:55:46.418Z,4.95
2018-12-10T22:00:51.398Z,8.87
2018-12-10T22:03:25.510Z,4.97
2018-12-10T22:05:58.550Z,5.23
2018-12-10T22:08:31.866Z,5.50
2018-12-10T22:11:05.063Z,5.37
2018-12-10T22:13:38.558Z,5.95
2018-12-10T22:16:11.789Z,5.57
2018-12-10T22:18:45.426Z,4.33
2018-12-10T22:21:19.159Z,4.70
2018-12-10T22:23:52.594Z,6.33
2018-12-10T22:28:57.446Z,4.20
2018-12-10T22:31:31.520Z,5.67
2018-12-10T22:34:04.793Z,4.80
2018-12-10T22:39:22.290Z,7.00
2018-12-10T22:41:55.703Z,5.87
2018-12-10T22:44:29.595Z,3.95
2018-12-10T22:47:03.146Z,4.03
2018-12-10T22:49:36.803Z,5.62
2018-12-10T22:52:10.450Z,5.70
2018-12-10T22:54:44.051Z,4.20
2018-12-10T22:57:17.883Z,4.10
2018-12-10T22:59:51.809Z,4.10
2018-12-10T23:02:25.329Z,4.87
2018-12-10T23:04:59.078Z,3.97
2018-12-10T23:07:32.567Z,4.23
2018-12-10T23:10:06.022Z,4.60
2018-12-10T23:12:39.688Z,3.73
2018-12-10T23:17:39.533Z,3.80
2018-12-10T23:20:12.822Z,4.10
2018-12-10T23:22:46.635Z,4.30
2018-12-10T23:25:20.163Z,4.37
2018-12-10T23:27:53.607Z,4.37
2018-12-10T23:30:27.446Z,4.30
2018-12-10T23:33:00.998Z,4.20
2018-12-10T23:35:34.630Z,6.73
2018-12-10T23:38:08.570Z,4.63
2018-12-10T23:40:41.591Z,4.07
2018-12-10T23:43:19.697Z,5.23
2018-12-10T23:45:53.619Z,4.78
2018-12-10T23:48:27.677Z,5.33
2018-12-10T23:51:01.806Z,9.13
2018-12-10T23:53:35.102Z,5.57
2018-12-10T23:56:08.824Z,6.03
2018-12-10T23:58:42.604Z,5.92
